• Join FlightAware (Why Join?)
  • Login
  • US Flag 
03:56AM EDT


 

Airport Tracker/Info


-or-


 

Live Flight TrackerFlight Track Log ✈ SWA525 ✈ 25-Apr-2013 ✈ KMCO - KSTL

Flight Track Log - Related Links

Times and Time Zones

All times are in EDT time to prevent confusion due to time zone crossing. See the SWA525 flight status page for this flight to view local times or setup timezone preferences in your user account.

Time Position Orientation Groundspeed Altitude Reporting Facility
EDT Latitude Longitude Course Direction KTS MPH feet Rate Location/Type
08:35PM 28.3333 -81.3500 201° Southwest 244 281 4,200  Level Orlando TRACON
08:36PM 28.3500 -81.4500 281° West 265 305 7,700 2,820 Climbing Orlando TRACON
08:37PM 28.3667 -81.5167 286° West 279 321 9,600 2,040 Climbing Orlando TRACON
08:38PM 28.3969 -81.6914 281° West 343 395 12,700 2,100 Climbing Jacksonville Center
08:39PM 28.4186 -81.7928 284° West 359 413 15,500 2,340 Climbing Jacksonville Center
08:40PM 28.4486 -81.9056 287° West 369 425 17,400 1,860 Climbing Jacksonville Center
08:41PM 28.4706 -82.0283 282° West 381 438 19,300 1,860 Climbing Jacksonville Center
08:42PM 28.4797 -82.1628 274° West 387 445 21,200 1,800 Climbing Jacksonville Center
08:43PM 28.4886 -82.2903 275° West 400 460 22,900 1,800 Climbing Jacksonville Center
08:44PM 28.4997 -82.4200 276° West 410 472 24,800 1,680 Climbing Jacksonville Center
08:45PM 28.5314 -82.5406 287° West 397 457 26,300 1,800 Climbing Jacksonville Center
08:46PM 28.6358 -82.6039 332° Northwest 377 434 28,400 2,340 Climbing Jacksonville Center
08:47PM 28.7194 -82.6631 328° Northwest 384 442 31,000 2,100 Climbing Jacksonville Center
08:48PM 28.8072 -82.7267 328° Northwest 384 442 32,700 1,260 Climbing Jacksonville Center
08:49PM 28.8950 -82.7906 327° Northwest 379 436 33,600 1,020 Climbing Jacksonville Center
08:50PM 28.9806 -82.8547 327° Northwest 374 430 34,800 1,080 Climbing Jacksonville Center
08:51PM 29.0683 -82.9186 328° Northwest 374 430 35,800 600 Climbing Jacksonville Center
08:52PM 29.1558 -82.9831 327° Northwest 374 430 36,000 60 Climbing Jacksonville Center
08:53PM 29.2433 -83.0472 327° Northwest 374 430 36,000  Level Jacksonville Center
08:54PM 29.3311 -83.1117 327° Northwest 374 430 36,000  Level Jacksonville Center
08:55PM 29.4206 -83.1786 327° Northwest 374 430 36,000  Level Jacksonville Center
08:56PM 29.5206 -83.2531 327° Northwest 383 441 36,000  Level Jacksonville Center
08:57PM 29.6061 -83.3153 328° Northwest 378 435 36,000  Level Jacksonville Center
08:58PM 29.6956 -83.3803 328° Northwest 378 435 36,000  Level Jacksonville Center
08:59PM 29.7850 -83.4478 327° Northwest 378 435 36,000  Level Jacksonville Center
09:00PM 29.8706 -83.5106 328° Northwest 378 435 36,000  Level Jacksonville Center
09:01PM 29.9600 -83.5733 329° Northwest 378 435 36,000  Level Jacksonville Center
09:02PM 30.0472 -83.6411 326° Northwest 378 435 36,000  Level Jacksonville Center
09:03PM 30.1367 -83.7092 327° Northwest 378 435 36,000  Level Jacksonville Center
09:04PM 30.2239 -83.7725 328° Northwest 378 435 36,000  Level Jacksonville Center
09:05PM 30.3153 -83.8406 327° Northwest 378 435 36,000  Level Jacksonville Center
09:06PM 30.4025 -83.9064 327° Northwest 378 435 36,000  Level Jacksonville Center
09:07PM 30.4936 -83.9750 327° Northwest 383 441 36,000  Level Jacksonville Center
09:08PM 30.5786 -84.0411 326° Northwest 378 435 36,000  Level Jacksonville Center
09:09PM 30.6678 -84.1097 327° Northwest 378 435 36,000  Level Jacksonville Center
09:10PM 30.7550 -84.1761 327° Northwest 378 435 36,000  Level Jacksonville Center
09:11PM 30.8439 -84.2428 327° Northwest 378 435 36,000  Level Jacksonville Center
09:12PM 30.9308 -84.3117 326° Northwest 378 435 36,000  Level Jacksonville Center
09:13PM 31.0200 -84.3786 327° Northwest 378 435 36,000  Level Jacksonville Center
09:16PM 31.2156 -84.5294 327° Northwest 378 435 36,000  Level Atlanta Center
09:17PM 31.3008 -84.5953 327° Northwest 378 435 36,000  Level Atlanta Center
09:18PM 31.3881 -84.6617 327° Northwest 378 435 36,000  Level Atlanta Center
09:19PM 31.4756 -84.7303 326° Northwest 378 435 36,000  Level Atlanta Center
09:20PM 31.5606 -84.7944 327° Northwest 378 435 36,000  Level Atlanta Center
09:21PM 31.6458 -84.8633 325° Northwest 378 435 36,000  Level Atlanta Center
09:22PM 31.7350 -84.9300 328° Northwest 378 435 36,000  Level Atlanta Center
09:23PM 31.8200 -84.9994 325° Northwest 378 435 36,000  Level Atlanta Center
09:24PM 31.9053 -85.0639 327° Northwest 378 435 36,000  Level Atlanta Center
09:25PM 31.9922 -85.1336 326° Northwest 378 435 36,000  Level Atlanta Center
09:26PM 32.0689 -85.1908 328° Northwest 373 429 36,000  Level Atlanta Center
09:27PM 32.1558 -85.2581 327° Northwest 373 429 36,000  Level Atlanta Center
09:28PM 32.2431 -85.3256 327° Northwest 373 429 36,000  Level Atlanta Center
09:29PM 32.3278 -85.3933 326° Northwest 373 429 36,000  Level Atlanta Center
09:30PM 32.4125 -85.4608 326° Northwest 373 429 36,000  Level Atlanta Center
09:31PM 32.5078 -85.5364 326° Northwest 373 429 36,000  Level Atlanta Center
09:32PM 32.5944 -85.6069 326° Northwest 373 429 36,000  Level Atlanta Center
09:33PM 32.6792 -85.6725 327° Northwest 373 429 36,000  Level Atlanta Center
09:34PM 32.7658 -85.7433 326° Northwest 373 429 36,000  Level Atlanta Center
09:35PM 32.8506 -85.8092 327° Northwest 373 429 36,000  Level Atlanta Center
09:36PM 32.9353 -85.8778 326° Northwest 373 429 36,000  Level Atlanta Center
09:37PM 33.0178 -85.9439 326° Northwest 373 429 36,000  Level Atlanta Center
09:38PM 33.1000 -86.0128 325° Northwest 368 423 36,000  Level Atlanta Center
09:39PM 33.1847 -86.0767 328° Northwest 362 417 36,000  Level Atlanta Center
09:40PM 33.2689 -86.1506 324° Northwest 367 422 36,000  Level Atlanta Center
09:41PM 33.3514 -86.2172 326° Northwest 367 422 36,000  Level Atlanta Center
09:42PM 33.4356 -86.2842 326° Northwest 367 422 36,000  Level Atlanta Center
09:43PM 33.5200 -86.3561 325° Northwest 367 422 36,000  Level Atlanta Center
09:44PM 33.5897 -86.4128 326° Northwest 367 422 36,000  Level Atlanta Center
09:45PM 33.6739 -86.4825 325° Northwest 362 417 36,000  Level Atlanta Center
09:46PM 33.7583 -86.5500 326° Northwest 362 417 36,000  Level Atlanta Center
09:48PM 33.9544 -86.7186 325° Northwest 367 422 36,000  Level Memphis Center
09:49PM 34.0378 -86.7853 326° Northwest 362 417 36,000  Level Memphis Center
09:50PM 34.1233 -86.8544 326° Northwest 362 417 36,000  Level Memphis Center
09:51PM 34.2044 -86.9267 324° Northwest 370 426 36,000  Level Memphis Center
09:52PM 34.2858 -86.9961 325° Northwest 363 418 36,000  Level Memphis Center
09:53PM 34.3625 -87.0561 327° Northwest 363 418 36,000  Level Memphis Center
09:54PM 34.4414 -87.1236 325° Northwest 363 418 36,000  Level Memphis Center
09:55PM 34.5228 -87.1986 323° Northwest 363 418 36,000  Level Memphis Center
09:56PM 34.6036 -87.2636 327° Northwest 363 418 36,000  Level Memphis Center
09:57PM 34.6844 -87.3314 325° Northwest 358 412 36,000  Level Memphis Center
09:58PM 34.7656 -87.3994 325° Northwest 353 406 36,000  Level Memphis Center
09:59PM 34.8508 -87.4747 324° Northwest 358 412 36,000  Level Memphis Center
10:00PM 34.9317 -87.5431 325° Northwest 353 406 36,000  Level Memphis Center
10:01PM 35.0122 -87.6111 325° Northwest 358 412 36,000  Level Memphis Center
10:02PM 35.0911 -87.6797 325° Northwest 358 412 36,000  Level Memphis Center
10:03PM 35.1675 -87.7383 328° Northwest 352 405 36,000  Level Memphis Center
10:04PM 35.2461 -87.8069 325° Northwest 357 411 36,000  Level Memphis Center
10:05PM 35.3247 -87.8783 323° Northwest 357 411 36,000  Level Memphis Center
10:06PM 35.4075 -87.9550 323° Northwest 352 405 36,000  Level Memphis Center
10:07PM 35.4817 -88.0139 327° Northwest 347 399 36,000  Level Memphis Center
10:08PM 35.5581 -88.0833 324° Northwest 347 399 36,000  Level Memphis Center
10:09PM 35.6467 -88.1497 329° Northwest 347 399 36,000  Level Memphis Center
10:10PM 35.7253 -88.2192 324° Northwest 342 394 36,000  Level Memphis Center
10:11PM 35.8014 -88.2889 323° Northwest 342 394 36,000 -480 Level Memphis Center
10:12PM 35.8797 -88.3561 325° Northwest 342 394 35,100 -540 Descending Memphis Center
10:13PM 35.9558 -88.4261 323° Northwest 347 399 35,000 -60 Descending Memphis Center
10:14PM 36.0361 -88.4933 326° Northwest 347 399 35,000  Level Memphis Center
10:15PM 36.1142 -88.5636 324° Northwest 347 399 35,000  Level Memphis Center
10:16PM 36.1925 -88.6339 324° Northwest 347 399 35,000 -360 Level Memphis Center
10:17PM 36.2728 -88.7069 324° Northwest 347 399 34,300 -540 Descending Memphis Center
10:18PM 36.3508 -88.7775 324° Northwest 347 399 34,000 -180 Descending Memphis Center
10:19PM 36.4286 -88.8456 325° Northwest 347 399 34,000  Level Memphis Center
10:20PM 36.5089 -88.9189 324° Northwest 352 405 34,000  Level Memphis Center
10:21PM 36.5889 -88.9872 326° Northwest 352 405 34,000  Level Memphis Center
10:22PM 36.6689 -89.0636 323° Northwest 352 405 34,000  Level Memphis Center
10:23PM 36.7425 -89.1297 324° Northwest 352 405 34,000  Level Memphis Center
10:25PM 36.8808 -89.2547 324° Northwest 345 397 34,000  Level Kansas City Center
10:26PM 36.9578 -89.3244 324° Northwest 343 395 34,000 -660 Level Kansas City Center
10:27PM 37.0356 -89.3956 324° Northwest 346 398 32,700 -2,280 Descending Kansas City Center
10:28PM 37.1133 -89.4681 323° Northwest 348 400 29,400 -3,000 Descending Kansas City Center
10:29PM 37.1975 -89.5439 324° Northwest 364 419 26,700 -1,680 Descending Kansas City Center
10:30PM 37.2892 -89.6103 330° Northwest 377 434 26,000 -360 Descending Kansas City Center
10:31PM 37.3858 -89.6592 338° Northwest 375 432 26,000  Level Kansas City Center
10:32PM 37.4861 -89.7136 337° Northwest 388 447 26,000 -360 Level Kansas City Center
10:33PM 37.5931 -89.7719 337° Northwest 394 453 25,300 -1,500 Descending Kansas City Center
10:34PM 37.6875 -89.8256 336° Northwest 372 428 22,900 -2,280 Descending Kansas City Center
10:35PM 37.7767 -89.8750 336° Northwest 353 406 20,700 -2,340 Descending Kansas City Center
10:36PM 37.8761 -89.9286 337° Northwest 339 390 18,300 -1,920 Descending Kansas City Center
10:37PM 37.9644 -89.9742 338° Northwest 341 392 16,800 -2,100 Descending Kansas City Center
10:38PM 38.0556 -90.0264 336° Northwest 336 387 14,000 -2,400 Descending Kansas City Center
10:39PM 38.1394 -90.0708 337° Northwest 329 379 11,900 -1,860 Descending Kansas City Center
10:40PM 38.2264 -90.0792 356° North 312 359 10,300 -1,020 Descending Kansas City Center
10:41PM 38.3039 -90.0878 355° North 279 321 9,900 -1,020 Descending Kansas City Center
10:42PM 38.3839 -90.0967 355° North 268 308 8,200 -1,380 Descending Kansas City Center
10:43PM 38.4439 -90.1119 349° North 259 298 7,100 -1,740 Descending Kansas City Center
10:44PM 38.5122 -90.1428 341° North 257 296 4,700 -1,680 Descending Kansas City Center
10:45PM 38.5814 -90.1792 338° Northwest 260 299 3,800 -780 Descending Kansas City Center
10:46PM 38.6486 -90.2244 332° Northwest 240 276 3,200 -840 Descending Kansas City Center
10:47PM 38.6936 -90.2553 332° Northwest 210 242 2,200 -900 Descending Kansas City Center
10:48PM 38.7181 -90.2975 307° West 175 201 1,400 -840 Descending Kansas City Center
10:49PM 38.7403 -90.3428 302° West 161 185 600 -780 Descending Kansas City Center
10:51PM 38.7333 -90.3667 322° Northwest  Level FlightAware Approximate
10:58PM 38.7487 -90.3700 322° Northwest  Level Estimated